Time;durP1;ratioP1;P1;durP2;ratioP2;P2;SDS_P1;SDS_P2;PMS_P1;PMS_P2;Temp;Humidity;BMP_temperature;BMP_pressure;BME280_temperature;BME280_humidity;BME280_pressure;Samples;Min_cycle;Max_cycle;Signal;HPM_P1;HPM_P2
2022/09/25 00:00:47;;;;;;;28.90;18.70;;;12.80;99.90;;;;;;5033346;28;20859;-62
2022/09/25 00:03:16;;;;;;;22.60;18.57;;;12.80;99.90;;;;;;5032902;28;20945;-62
2022/09/25 00:05:45;;;;;;;24.57;18.87;;;12.70;99.90;;;;;;5033266;28;20437;-63
2022/09/25 00:08:13;;;;;;;22.97;18.87;;;12.70;99.90;;;;;;5033231;28;20448;-62
2022/09/25 00:10:41;;;;;;;23.23;18.80;;;12.70;99.90;;;;;;5033222;28;20441;-62
2022/09/25 00:13:08;;;;;;;30.00;19.80;;;12.70;99.90;;;;;;5033171;28;20461;-62
2022/09/25 00:15:35;;;;;;;28.03;18.23;;;12.70;99.90;;;;;;5033042;28;20484;-61
2022/09/25 00:18:02;;;;;;;25.03;18.00;;;12.70;99.90;;;;;;5033176;28;20445;-62
2022/09/25 00:20:29;;;;;;;31.77;18.60;;;12.60;99.90;;;;;;5033138;28;20471;-62
2022/09/25 00:22:57;;;;;;;27.20;17.80;;;12.70;99.90;;;;;;5033102;28;20556;-62
2022/09/25 00:25:27;;;;;;;25.87;17.80;;;12.60;99.90;;;;;;5034982;28;20445;-62
2022/09/25 00:27:54;;;;;;;35.67;19.93;;;12.60;99.90;;;;;;5039719;28;20909;-61
2022/09/25 00:30:22;;;;;;;27.50;18.50;;;12.60;99.90;;;;;;5037991;28;20440;-60
2022/09/25 00:32:49;;;;;;;30.67;18.50;;;12.60;99.90;;;;;;5037635;28;20964;-59
2022/09/25 00:35:16;;;;;;;31.77;17.97;;;12.50;99.90;;;;;;5038221;28;20846;-61
2022/09/25 00:37:44;;;;;;;29.63;17.63;;;12.50;99.90;;;;;;5038571;28;21032;-61
2022/09/25 00:40:11;;;;;;;31.63;18.60;;;12.50;99.90;;;;;;5038507;28;20806;-62
2022/09/25 00:42:39;;;;;;;29.83;16.90;;;12.40;99.90;;;;;;5038656;28;20831;-62
2022/09/25 00:45:06;;;;;;;28.77;18.20;;;12.40;99.90;;;;;;5038123;28;20445;-60
2022/09/25 00:47:52;;;;;;;27.33;17.20;;;12.40;99.90;;;;;;5038370;28;20452;-61
2022/09/25 00:50:33;;;;;;;29.63;19.00;;;12.40;99.90;;;;;;5036647;28;20471;-62
2022/09/25 00:53:06;;;;;;;27.67;16.93;;;12.40;99.90;;;;;;5037369;28;20468;-62
2022/09/25 00:55:35;;;;;;;28.37;19.10;;;12.40;99.90;;;;;;5037500;28;20469;-60
2022/09/25 00:58:03;;;;;;;30.00;18.70;;;12.40;99.90;;;;;;5037587;28;20448;-60
2022/09/25 01:00:32;;;;;;;31.83;19.63;;;12.40;99.90;;;;;;5037556;28;20440;-60
2022/09/25 01:02:58;;;;;;;35.87;18.90;;;12.40;99.90;;;;;;5037439;28;20477;-60
2022/09/25 01:05:30;;;;;;;29.90;18.70;;;12.30;99.90;;;;;;5036991;28;20444;-62
2022/09/25 01:08:00;;;;;;;28.67;18.37;;;12.30;99.90;;;;;;5036410;28;20457;-62
2022/09/25 01:10:29;;;;;;;30.50;18.80;;;12.30;99.90;;;;;;5036329;28;20432;-61
2022/09/25 01:12:57;;;;;;;32.70;20.63;;;12.30;99.90;;;;;;5036001;28;20469;-61
2022/09/25 01:15:32;;;;;;;33.87;21.20;;;12.30;99.90;;;;;;5036094;28;20480;-61
2022/09/25 01:18:11;;;;;;;33.73;21.20;;;12.30;99.90;;;;;;5035947;28;20425;-62
2022/09/25 01:21:00;;;;;;;40.67;21.40;;;12.20;99.90;;;;;;5036281;28;20431;-63
2022/09/25 01:23:45;;;;;;;34.63;21.40;;;12.20;99.90;;;;;;5036134;28;20429;-63
2022/09/25 01:26:31;;;;;;;39.43;21.50;;;12.20;99.90;;;;;;5036485;28;20436;-60
2022/09/25 01:29:10;;;;;;;42.80;24.23;;;12.20;99.90;;;;;;5035751;28;20897;-62
2022/09/25 01:31:42;;;;;;;35.90;22.70;;;12.20;99.90;;;;;;5036090;28;20472;-62
2022/09/25 01:34:15;;;;;;;44.33;22.83;;;12.20;99.90;;;;;;5035755;28;20436;-63
2022/09/25 01:36:48;;;;;;;40.90;24.43;;;12.20;99.90;;;;;;5035314;28;20473;-61
2022/09/25 01:39:21;;;;;;;37.97;22.67;;;12.20;99.90;;;;;;5035986;28;20441;-62
2022/09/25 01:41:53;;;;;;;38.83;23.40;;;12.20;99.90;;;;;;5035886;28;20472;-61
2022/09/25 01:44:26;;;;;;;47.07;24.13;;;12.20;99.90;;;;;;5035590;28;20429;-61
2022/09/25 01:46:55;;;;;;;40.20;23.90;;;12.10;99.90;;;;;;5035827;28;20425;-61
2022/09/25 01:49:28;;;;;;;37.27;25.00;;;12.10;99.90;;;;;;5035657;28;20445;-62
2022/09/25 01:51:56;;;;;;;42.93;23.37;;;12.10;99.90;;;;;;5035254;28;20991;-61
2022/09/25 01:54:30;;;;;;;38.23;24.57;;;12.10;99.90;;;;;;5035625;28;20488;-61
2022/09/25 01:57:03;;;;;;;35.37;23.50;;;12.10;99.90;;;;;;5035545;28;20490;-62
2022/09/25 01:59:36;;;;;;;39.47;23.87;;;12.10;99.90;;;;;;5035766;28;20792;-62
2022/09/25 02:02:07;;;;;;;37.00;25.40;;;12.10;99.90;;;;;;5069587;22;20494;-58
2022/09/25 02:04:37;;;;;;;45.23;26.73;;;12.10;99.90;;;;;;5075756;28;20442;-60
2022/09/25 02:07:08;;;;;;;38.07;23.97;;;12.00;99.90;;;;;;5075372;28;20801;-60
2022/09/25 02:09:42;;;;;;;41.60;23.73;;;12.00;99.90;;;;;;5075587;28;20424;-60
2022/09/25 02:12:14;;;;;;;41.33;26.27;;;12.00;99.90;;;;;;5076018;28;20463;-60
2022/09/25 02:14:47;;;;;;;41.43;25.50;;;12.00;99.90;;;;;;5075645;28;20432;-60
2022/09/25 02:20:30;;;;;;;45.53;26.03;;;12.00;99.90;;;;;;5075731;28;20439;-60
2022/09/25 02:22:55;;;;;;;49.97;30.07;;;11.90;99.90;;;;;;5075200;28;20465;-60
2022/09/25 02:25:33;;;;;;;49.97;30.17;;;12.00;99.90;;;;;;5075079;28;20443;-60
2022/09/25 02:27:59;;;;;;;55.27;29.77;;;12.00;99.90;;;;;;5074526;28;20442;-60
2022/09/25 02:30:27;;;;;;;54.23;32.33;;;11.90;99.90;;;;;;5074481;28;20450;-60
2022/09/25 02:32:56;;;;;;;58.63;35.37;;;12.00;99.90;;;;;;5074725;28;20474;-60
2022/09/25 02:35:23;;;;;;;59.87;32.77;;;12.00;99.90;;;;;;5075809;28;20483;-60
2022/09/25 02:37:50;;;;;;;55.93;32.03;;;11.90;99.90;;;;;;5075320;28;20931;-59
2022/09/25 02:40:18;;;;;;;58.90;33.00;;;11.90;99.90;;;;;;5074873;28;20451;-60
2022/09/25 02:42:50;;;;;;;55.53;32.17;;;11.90;99.90;;;;;;5074508;28;20463;-60
2022/09/25 02:45:26;;;;;;;53.70;34.13;;;11.90;99.90;;;;;;5074699;28;20423;-60
2022/09/25 02:48:06;;;;;;;52.83;31.53;;;11.90;99.90;;;;;;5074781;28;20436;-61
2022/09/25 02:50:39;;;;;;;49.77;30.10;;;11.90;99.90;;;;;;5073986;28;20430;-60
2022/09/25 02:53:10;;;;;;;58.10;32.20;;;11.90;99.90;;;;;;5074821;28;20470;-60
2022/09/25 02:55:40;;;;;;;53.50;31.97;;;11.90;99.90;;;;;;5074593;28;20467;-60
2022/09/25 02:58:13;;;;;;;51.93;30.60;;;11.90;99.90;;;;;;5074274;28;20431;-61
2022/09/25 03:00:42;;;;;;;48.53;29.57;;;11.90;99.90;;;;;;5074243;28;20432;-60
2022/09/25 03:03:13;;;;;;;43.77;26.30;;;11.90;99.90;;;;;;5073809;28;20479;-59
2022/09/25 03:05:40;;;;;;;46.57;28.27;;;11.90;99.90;;;;;;5073798;28;20424;-59
2022/09/25 03:10:52;;;;;;;49.97;28.17;;;11.90;99.90;;;;;;5074585;28;20996;-59
2022/09/25 03:13:21;;;;;;;44.00;28.20;;;11.90;99.90;;;;;;5073956;28;20903;-60
2022/09/25 03:15:51;;;;;;;49.10;28.90;;;11.90;99.90;;;;;;5074025;28;20478;-59
2022/09/25 03:18:20;;;;;;;45.30;28.93;;;11.90;99.90;;;;;;5074759;28;20436;-59
2022/09/25 03:20:47;;;;;;;47.23;30.90;;;11.90;99.90;;;;;;5073986;28;20451;-59
2022/09/25 03:23:14;;;;;;;47.07;28.77;;;11.90;99.90;;;;;;5073729;28;20472;-59
2022/09/25 03:25:41;;;;;;;36.30;25.40;;;11.90;99.90;;;;;;5073809;28;20447;-58
2022/09/25 03:28:10;;;;;;;37.83;25.27;;;11.90;99.90;;;;;;5073726;28;20443;-59
2022/09/25 03:30:39;;;;;;;40.40;27.70;;;11.80;99.90;;;;;;5073616;28;20443;-59
2022/09/25 03:33:06;;;;;;;40.00;26.30;;;11.90;99.90;;;;;;5073562;28;20467;-59
2022/09/25 03:35:35;;;;;;;36.80;24.90;;;11.90;99.90;;;;;;5073015;28;20486;-59
2022/09/25 03:38:02;;;;;;;37.70;23.90;;;11.80;99.90;;;;;;5073254;28;20450;-59
2022/09/25 03:40:29;;;;;;;36.50;25.77;;;11.80;99.90;;;;;;5073844;28;20443;-59
2022/09/25 03:42:56;;;;;;;36.07;25.63;;;11.80;99.90;;;;;;5073600;28;20494;-59
2022/09/25 03:45:22;;;;;;;37.50;24.93;;;11.80;99.90;;;;;;5073078;28;20934;-60
2022/09/25 03:47:49;;;;;;;40.63;26.77;;;11.80;99.90;;;;;;5073184;28;20950;-59
2022/09/25 03:50:16;;;;;;;31.60;22.50;;;11.80;99.90;;;;;;5073265;28;20450;-59
2022/09/25 03:52:44;;;;;;;38.70;24.43;;;11.80;99.90;;;;;;5073782;28;20474;-59
2022/09/25 03:55:11;;;;;;;35.13;24.50;;;11.80;99.90;;;;;;5073862;28;20447;-59
2022/09/25 03:57:40;;;;;;;37.07;23.00;;;11.80;99.90;;;;;;5074162;28;20520;-59
2022/09/25 04:00:08;;;;;;;32.50;22.53;;;11.90;99.90;;;;;;5072667;28;20880;-60
2022/09/25 04:02:35;;;;;;;31.80;22.77;;;11.90;99.90;;;;;;5072733;28;20475;-59
2022/09/25 04:05:03;;;;;;;39.10;24.60;;;11.80;99.90;;;;;;5073133;28;20451;-60
2022/09/25 04:10:17;;;;;;;32.03;19.90;;;11.80;99.90;;;;;;5090942;28;20603;-60
2022/09/25 04:12:43;;;;;;;29.40;22.37;;;11.80;99.90;;;;;;5090323;28;20477;-61
2022/09/25 04:15:11;;;;;;;29.40;21.73;;;11.80;99.90;;;;;;5091272;28;20516;-60
2022/09/25 04:17:37;;;;;;;32.90;21.33;;;11.80;99.90;;;;;;5090813;28;20815;-60
2022/09/25 04:20:05;;;;;;;31.33;20.53;;;11.80;99.90;;;;;;5090827;28;20446;-60
2022/09/25 04:22:31;;;;;;;33.57;20.60;;;11.80;99.90;;;;;;5090605;28;20470;-60
2022/09/25 04:24:58;;;;;;;25.10;18.80;;;11.80;99.90;;;;;;5091163;28;20446;-61
2022/09/25 04:27:26;;;;;;;24.90;18.60;;;11.80;99.90;;;;;;5091564;28;20474;-60
2022/09/25 04:29:53;;;;;;;28.33;19.50;;;11.80;99.90;;;;;;5093924;28;20489;-59
2022/09/25 04:35:05;;;;;;;27.67;19.20;;;11.90;99.90;;;;;;5100832;28;20437;-60
2022/09/25 04:37:32;;;;;;;21.87;16.07;;;11.90;99.90;;;;;;5090696;28;20934;-60
2022/09/25 04:39:58;;;;;;;25.50;18.13;;;11.90;99.90;;;;;;5090964;28;20447;-60
2022/09/25 04:42:26;;;;;;;27.73;18.37;;;11.90;99.90;;;;;;5091381;28;20974;-60
2022/09/25 04:44:55;;;;;;;26.30;17.90;;;11.90;99.90;;;;;;5091401;28;20442;-60
2022/09/25 04:47:22;;;;;;;22.27;15.60;;;11.90;99.90;;;;;;5090392;28;20937;-60
2022/09/25 04:49:49;;;;;;;23.83;17.07;;;11.90;99.90;;;;;;5090350;28;20903;-59
2022/09/25 04:52:17;;;;;;;26.43;16.57;;;11.90;99.90;;;;;;5090097;28;20474;-60
2022/09/25 04:54:44;;;;;;;24.00;16.70;;;11.90;99.90;;;;;;5090168;28;20450;-61
2022/09/25 04:57:16;;;;;;;22.70;15.20;;;11.90;99.90;;;;;;5090061;28;20442;-60
2022/09/25 04:59:44;;;;;;;24.30;16.73;;;11.90;99.90;;;;;;5090213;28;20494;-58
2022/09/25 05:02:11;;;;;;;25.60;16.10;;;11.90;99.90;;;;;;5089493;28;20974;-60
2022/09/25 05:04:38;;;;;;;20.37;15.17;;;11.90;99.90;;;;;;5089522;28;20454;-60
2022/09/25 05:07:05;;;;;;;26.97;15.03;;;12.00;99.90;;;;;;5089399;28;20949;-60
2022/09/25 05:09:32;;;;;;;22.93;14.90;;;11.90;99.90;;;;;;5089155;28;20477;-60
2022/09/25 05:11:59;;;;;;;22.07;14.40;;;11.90;99.90;;;;;;5089302;28;20462;-61
2022/09/25 05:14:26;;;;;;;24.07;14.60;;;12.00;99.90;;;;;;5089682;28;20442;-60
2022/09/25 05:16:54;;;;;;;20.37;13.60;;;12.00;99.90;;;;;;5089648;28;20442;-61
2022/09/25 05:19:20;;;;;;;17.00;13.03;;;11.90;99.90;;;;;;5089421;28;20443;-61
2022/09/25 05:21:47;;;;;;;19.20;14.60;;;12.00;99.90;;;;;;5075168;28;20471;-60
2022/09/25 05:24:14;;;;;;;18.60;13.57;;;11.90;99.90;;;;;;5075907;28;20447;-61
2022/09/25 05:26:41;;;;;;;18.10;13.53;;;11.90;99.90;;;;;;5075991;28;20456;-61
2022/09/25 05:29:08;;;;;;;18.50;12.67;;;11.90;99.90;;;;;;5076100;28;20479;-60
2022/09/25 05:31:35;;;;;;;14.80;11.83;;;11.90;99.90;;;;;;5076417;28;20444;-60
2022/09/25 05:34:03;;;;;;;20.80;12.37;;;11.90;99.90;;;;;;5076053;28;20443;-59
2022/09/25 05:36:30;;;;;;;23.77;12.77;;;11.90;99.90;;;;;;5075759;28;20943;-61
2022/09/25 05:38:59;;;;;;;19.97;11.90;;;11.90;99.90;;;;;;5075632;28;20447;-57
2022/09/25 05:41:25;;;;;;;17.67;12.37;;;11.90;99.90;;;;;;5075724;28;20550;-60
2022/09/25 05:43:54;;;;;;;18.83;10.50;;;12.00;99.90;;;;;;5075321;28;20453;-60
2022/09/25 05:46:20;;;;;;;18.00;10.63;;;12.00;99.90;;;;;;5075338;28;20967;-60
2022/09/25 05:48:47;;;;;;;16.40;10.00;;;12.00;99.90;;;;;;5075435;28;20474;-62
2022/09/25 05:51:15;;;;;;;13.03;10.83;;;12.00;99.90;;;;;;5075303;28;20447;-60
2022/09/25 05:53:42;;;;;;;15.80;10.23;;;12.00;99.90;;;;;;5075368;28;20463;-61
2022/09/25 05:56:09;;;;;;;14.47;10.53;;;12.00;99.90;;;;;;5075014;28;20546;-61
2022/09/25 05:58:36;;;;;;;16.33;9.40;;;12.00;99.90;;;;;;5075332;28;20439;-60
2022/09/25 06:01:03;;;;;;;17.43;11.00;;;12.00;99.90;;;;;;5075110;28;20834;-61
2022/09/25 06:03:31;;;;;;;15.10;9.10;;;12.00;99.90;;;;;;5075665;28;20464;-61
2022/09/25 06:05:58;;;;;;;19.47;9.63;;;12.00;99.90;;;;;;5075090;28;20806;-60
2022/09/25 06:08:27;;;;;;;14.73;10.30;;;12.00;99.90;;;;;;5074610;28;20462;-58
2022/09/25 06:10:54;;;;;;;14.13;8.80;;;12.00;99.90;;;;;;5075260;28;20496;-59
2022/09/25 06:13:22;;;;;;;16.17;8.93;;;12.00;99.90;;;;;;5074787;28;20478;-60
2022/09/25 06:15:51;;;;;;;12.37;8.37;;;12.10;99.90;;;;;;5074998;28;20439;-60
2022/09/25 06:18:20;;;;;;;12.10;8.73;;;12.10;99.90;;;;;;5074930;28;20455;-59
2022/09/25 06:20:47;;;;;;;13.40;8.30;;;12.10;99.90;;;;;;5074999;28;21060;-61
2022/09/25 06:23:15;;;;;;;11.60;7.70;;;12.10;99.90;;;;;;5074907;28;20463;-60
2022/09/25 06:25:43;;;;;;;15.60;7.77;;;12.10;99.90;;;;;;5074675;28;20939;-60
2022/09/25 06:28:11;;;;;;;9.57;7.57;;;12.10;99.90;;;;;;5087242;28;20458;-60
2022/09/25 06:30:39;;;;;;;10.20;8.30;;;12.10;99.90;;;;;;5087390;28;20483;-59
2022/09/25 06:33:08;;;;;;;8.60;6.53;;;12.20;99.90;;;;;;5076286;28;20489;-59
2022/09/25 06:35:35;;;;;;;12.13;8.57;;;12.20;99.90;;;;;;5074554;28;20451;-60
2022/09/25 06:38:03;;;;;;;16.67;8.40;;;12.30;99.90;;;;;;5074274;28;20961;-60
2022/09/25 06:40:31;;;;;;;10.87;7.33;;;12.20;99.90;;;;;;5074671;28;20451;-60
2022/09/25 06:43:00;;;;;;;13.17;8.53;;;12.30;99.90;;;;;;5074753;28;20919;-59
2022/09/25 06:45:28;;;;;;;19.93;9.10;;;12.30;99.90;;;;;;5074531;28;20958;-59
2022/09/25 06:48:00;;;;;;;24.50;9.23;;;12.30;99.90;;;;;;5074407;28;20451;-61
2022/09/25 06:50:30;;;;;;;10.53;7.73;;;12.30;99.90;;;;;;5075191;28;20829;-60
2022/09/25 06:52:58;;;;;;;13.87;8.27;;;12.40;99.90;;;;;;5074297;28;20893;-60
2022/09/25 06:55:25;;;;;;;11.50;7.63;;;12.40;99.90;;;;;;5074659;28;20451;-59
2022/09/25 06:57:52;;;;;;;8.60;7.13;;;12.40;99.90;;;;;;5074640;28;20443;-59
2022/09/25 07:00:20;;;;;;;12.70;7.00;;;12.40;99.90;;;;;;5074408;28;20439;-59
2022/09/25 07:05:32;;;;;;;9.97;6.93;;;12.50;99.90;;;;;;5074229;28;20535;-59
2022/09/25 07:07:59;;;;;;;9.40;6.80;;;12.60;99.90;;;;;;5073515;28;20447;-60
2022/09/25 07:10:26;;;;;;;15.10;6.77;;;12.60;99.90;;;;;;5074227;28;20470;-60
2022/09/25 07:12:53;;;;;;;9.67;6.43;;;12.70;99.90;;;;;;5074125;28;20805;-61
2022/09/25 07:15:21;;;;;;;11.57;6.30;;;12.80;99.90;;;;;;5074378;28;20857;-60
2022/09/25 07:17:48;;;;;;;11.07;7.27;;;12.80;99.90;;;;;;5073914;28;20951;-61
2022/09/25 07:20:15;;;;;;;9.93;6.90;;;12.70;99.90;;;;;;5074511;28;20451;-60
2022/09/25 07:22:42;;;;;;;13.93;7.77;;;12.80;99.90;;;;;;5074305;28;20474;-58
2022/09/25 07:25:10;;;;;;;11.90;7.43;;;12.80;99.90;;;;;;5074246;28;20446;-59
2022/09/25 07:27:37;;;;;;;10.93;7.77;;;12.80;99.90;;;;;;5074376;28;20542;-60
2022/09/25 07:30:05;;;;;;;11.47;7.83;;;12.80;99.90;;;;;;5074024;28;20483;-60
2022/09/25 07:32:33;;;;;;;11.33;8.73;;;12.70;99.90;;;;;;5074032;28;20471;-60
2022/09/25 07:35:01;;;;;;;10.70;7.60;;;12.70;99.90;;;;;;5082992;28;21000;-59
2022/09/25 07:37:28;;;;;;;16.30;8.83;;;12.70;99.90;;;;;;5087284;28;20927;-59
2022/09/25 07:39:55;;;;;;;16.30;9.23;;;12.70;99.90;;;;;;5089098;28;20942;-60
2022/09/25 07:42:22;;;;;;;20.40;10.20;;;12.80;99.90;;;;;;5082780;28;20464;-60
2022/09/25 07:44:48;;;;;;;11.63;9.10;;;12.80;99.90;;;;;;5083969;28;20445;-60
2022/09/25 07:47:16;;;;;;;12.13;8.77;;;12.80;99.90;;;;;;5077594;28;20797;-61
2022/09/25 07:49:44;;;;;;;20.30;9.90;;;12.90;99.90;;;;;;5078733;28;20475;-60
2022/09/25 07:52:11;;;;;;;16.13;9.20;;;13.00;99.90;;;;;;5083875;28;20463;-59
2022/09/25 07:54:38;;;;;;;17.50;9.20;;;12.90;99.90;;;;;;5080646;28;20534;-60
2022/09/25 07:57:04;;;;;;;16.20;10.00;;;12.90;99.90;;;;;;5083355;28;20457;-61
2022/09/25 07:59:31;;;;;;;12.60;10.40;;;12.90;99.90;;;;;;5084599;28;20446;-60
2022/09/25 08:01:58;;;;;;;14.50;10.80;;;12.90;99.90;;;;;;5087324;28;20827;-58
2022/09/25 08:04:25;;;;;;;16.77;10.43;;;12.90;99.90;;;;;;5082392;28;20454;-59
2022/09/25 08:06:53;;;;;;;12.50;9.23;;;12.90;99.90;;;;;;5081517;28;20447;-60
2022/09/25 08:09:20;;;;;;;12.00;10.20;;;12.90;99.90;;;;;;5080345;28;20523;-58
2022/09/25 08:11:46;;;;;;;11.20;9.50;;;12.90;99.90;;;;;;5079189;28;20467;-60
2022/09/25 08:14:14;;;;;;;18.53;9.50;;;12.90;99.90;;;;;;5080499;28;20459;-60
2022/09/25 08:16:41;;;;;;;13.50;9.73;;;12.90;99.90;;;;;;5083207;28;20512;-60
2022/09/25 08:19:08;;;;;;;13.70;9.63;;;12.90;99.90;;;;;;5086526;28;20475;-59
2022/09/25 08:21:35;;;;;;;11.47;9.50;;;12.80;99.90;;;;;;5082029;28;20455;-59
2022/09/25 08:24:04;;;;;;;16.53;9.90;;;12.80;99.90;;;;;;5083009;28;20448;-59
2022/09/25 08:26:31;;;;;;;18.23;9.53;;;12.80;99.90;;;;;;5071529;28;20537;-61
2022/09/25 08:28:58;;;;;;;16.13;9.07;;;12.80;99.90;;;;;;5085281;28;20445;-60
2022/09/25 08:31:25;;;;;;;12.40;10.17;;;12.80;99.90;;;;;;5072406;28;20511;-60
2022/09/25 08:33:53;;;;;;;17.90;9.00;;;12.80;99.90;;;;;;5061982;28;20446;-61
2022/09/25 08:36:21;;;;;;;11.00;8.47;;;12.80;99.90;;;;;;5059353;28;20956;-60
2022/09/25 08:38:48;;;;;;;10.00;8.20;;;12.80;99.90;;;;;;5058602;28;20448;-60
2022/09/25 08:41:20;;;;;;;14.40;8.60;;;12.80;99.90;;;;;;5056350;28;20450;-60
2022/09/25 08:43:56;;;;;;;12.33;9.33;;;12.80;99.90;;;;;;5072009;28;20463;-60
2022/09/25 08:49:25;;;;;;;11.80;7.83;;;12.90;99.90;;;;;;5075872;28;20822;-60
2022/09/25 08:51:59;;;;;;;8.13;6.83;;;13.00;99.90;;;;;;5071460;28;20472;-59
2022/09/25 08:54:27;;;;;;;9.23;7.97;;;13.10;99.90;;;;;;5061936;28;20443;-62
2022/09/25 08:57:02;;;;;;;11.80;8.37;;;13.10;99.90;;;;;;5061144;28;20452;-60
2022/09/25 08:59:34;;;;;;;10.40;8.57;;;13.20;99.90;;;;;;5061376;28;20454;-60
2022/09/25 09:02:04;;;;;;;11.33;8.20;;;13.20;99.90;;;;;;5061835;28;20491;-61
2022/09/25 09:04:33;;;;;;;11.63;7.60;;;13.20;99.90;;;;;;5061976;28;20447;-60
2022/09/25 09:07:05;;;;;;;11.60;7.17;;;13.20;99.90;;;;;;5058942;28;20522;-57
2022/09/25 09:09:38;;;;;;;10.17;7.63;;;13.20;99.90;;;;;;5077197;28;20466;-60
2022/09/25 09:12:12;;;;;;;9.43;7.23;;;13.20;99.90;;;;;;5075654;28;20475;-60
2022/09/25 09:14:49;;;;;;;11.87;7.87;;;13.20;99.90;;;;;;5072540;28;20446;-60
2022/09/25 09:17:19;;;;;;;9.87;7.93;;;13.20;99.90;;;;;;5059004;28;20429;-62
2022/09/25 09:19:50;;;;;;;9.73;7.43;;;13.30;99.90;;;;;;5067374;28;20440;-60
2022/09/25 09:22:24;;;;;;;8.53;7.43;;;13.30;99.90;;;;;;5062581;28;20467;-61
2022/09/25 09:24:55;;;;;;;9.03;8.10;;;13.30;99.90;;;;;;5070647;28;20443;-62
2022/09/25 09:27:45;;;;;;;7.90;7.07;;;13.20;99.90;;;;;;5068937;28;20445;-60
2022/09/25 09:30:15;;;;;;;11.20;7.27;;;13.20;99.90;;;;;;5076904;28;20979;-60
2022/09/25 09:33:03;;;;;;;9.80;7.00;;;13.20;99.90;;;;;;5076176;28;20467;-61
2022/09/25 09:35:38;;;;;;;14.57;9.03;;;13.30;99.90;;;;;;5076581;28;20427;-61
2022/09/25 09:38:21;;;;;;;9.00;7.77;;;13.40;99.90;;;;;;5077385;28;20443;-61
2022/09/25 09:41:15;;;;;;;13.13;7.87;;;13.40;99.90;;;;;;5078353;28;20427;-61
2022/09/25 09:43:57;;;;;;;9.33;7.40;;;13.50;99.90;;;;;;5075507;28;20516;-60
2022/09/25 09:46:34;;;;;;;11.47;8.43;;;13.50;99.90;;;;;;5077322;28;20435;-60
2022/09/25 09:49:09;;;;;;;10.87;8.27;;;13.60;99.90;;;;;;5076758;28;20847;-60
2022/09/25 09:51:42;;;;;;;16.43;7.80;;;13.60;99.90;;;;;;5072534;28;20471;-61
2022/09/25 09:54:14;;;;;;;14.50;7.93;;;13.60;99.90;;;;;;5071025;28;20462;-60
2022/09/25 09:56:43;;;;;;;9.57;7.90;;;13.60;99.90;;;;;;5069008;28;20443;-60
2022/09/25 09:59:16;;;;;;;13.67;8.57;;;13.60;99.90;;;;;;5065136;28;20440;-59
2022/09/25 10:01:45;;;;;;;11.23;7.50;;;13.60;99.90;;;;;;5057963;28;20416;-59
2022/09/25 10:04:16;;;;;;;11.57;7.83;;;13.60;99.90;;;;;;5077294;28;20451;-61
2022/09/25 10:06:48;;;;;;;9.60;6.90;;;13.60;99.90;;;;;;5076543;28;20424;-60
2022/09/25 10:09:16;;;;;;;9.73;7.67;;;13.60;99.90;;;;;;5076546;28;20459;-59
2022/09/25 10:11:45;;;;;;;8.50;7.60;;;13.60;99.90;;;;;;5077613;28;20489;-60
2022/09/25 10:14:19;;;;;;;8.03;7.13;;;13.70;99.90;;;;;;5074266;28;20440;-61
2022/09/25 10:16:47;;;;;;;11.97;7.43;;;13.70;99.90;;;;;;5057907;28;20432;-59
2022/09/25 10:19:18;;;;;;;10.50;6.40;;;13.80;99.90;;;;;;5058211;28;20450;-60
2022/09/25 10:21:48;;;;;;;9.70;7.80;;;13.80;99.90;;;;;;5057214;28;20464;-60
2022/09/25 10:24:50;;;;;;;10.87;8.27;;;13.90;99.90;;;;;;5059287;28;20459;-61
2022/09/25 10:27:28;;;;;;;10.10;7.33;;;13.90;99.90;;;;;;5066172;28;20458;-61
2022/09/25 10:30:05;;;;;;;8.70;7.87;;;13.70;99.90;;;;;;5062215;28;20427;-61
2022/09/25 10:32:34;;;;;;;8.83;7.80;;;13.50;99.90;;;;;;5057826;28;20452;-60
2022/09/25 10:35:02;;;;;;;10.20;8.10;;;13.40;99.90;;;;;;5057858;28;20467;-60
2022/09/25 10:37:34;;;;;;;10.23;8.43;;;13.40;99.90;;;;;;5057729;28;20450;-61
2022/09/25 10:40:04;;;;;;;9.30;7.90;;;13.50;99.90;;;;;;5056073;28;20428;-60
2022/09/25 10:42:37;;;;;;;8.60;7.30;;;13.60;99.90;;;;;;5055038;28;20833;-59
2022/09/25 10:45:29;;;;;;;9.97;7.60;;;13.70;99.90;;;;;;5055497;28;20443;-60
2022/09/25 10:50:41;;;;;;;7.20;6.50;;;14.00;99.90;;;;;;5057010;28;20458;-60
2022/09/25 10:53:27;;;;;;;7.50;6.27;;;14.10;99.90;;;;;;5055500;28;20464;-60
2022/09/25 10:56:00;;;;;;;9.53;5.50;;;14.30;99.90;;;;;;5055083;28;20483;-60
2022/09/25 10:58:34;;;;;;;6.57;5.90;;;14.30;99.90;;;;;;5055476;28;20439;-61
2022/09/25 11:01:04;;;;;;;5.90;5.30;;;14.30;99.90;;;;;;5054999;28;20432;-60
2022/09/25 11:03:33;;;;;;;6.47;5.20;;;14.20;99.90;;;;;;5057860;28;20476;-58
2022/09/25 11:06:04;;;;;;;5.63;5.07;;;14.20;99.90;;;;;;5054980;28;20494;-60
2022/09/25 11:08:36;;;;;;;6.27;5.50;;;14.20;99.90;;;;;;5054627;28;20543;-59
2022/09/25 11:11:04;;;;;;;6.47;5.50;;;14.20;99.90;;;;;;5063107;28;20463;-59
2022/09/25 11:13:39;;;;;;;8.70;5.23;;;14.30;99.90;;;;;;5075172;28;20474;-59
2022/09/25 11:16:09;;;;;;;7.20;5.03;;;14.50;99.90;;;;;;5074482;28;20446;-59
2022/09/25 11:18:39;;;;;;;8.37;5.17;;;14.70;99.90;;;;;;5073611;28;20451;-61
2022/09/25 11:21:17;;;;;;;4.90;4.50;;;14.80;99.90;;;;;;5059206;28;20896;-59
2022/09/25 11:23:59;;;;;;;5.43;4.50;;;15.00;99.90;;;;;;5074519;28;20574;-60
2022/09/25 11:26:32;;;;;;;8.67;4.73;;;15.10;99.90;;;;;;5074308;28;20837;-61
2022/09/25 11:29:06;;;;;;;4.47;4.07;;;15.30;99.90;;;;;;5074683;28;20431;-60
2022/09/25 11:31:38;;;;;;;7.10;3.97;;;15.50;99.90;;;;;;5073747;28;20891;-59
2022/09/25 11:34:17;;;;;;;7.43;4.20;;;15.60;99.90;;;;;;5074715;28;20435;-58
2022/09/25 11:36:47;;;;;;;4.13;3.50;;;15.70;99.90;;;;;;5055639;28;20950;-60
2022/09/25 11:42:14;;;;;;;4.07;3.63;;;16.10;99.90;;;;;;5054500;28;20455;-61
2022/09/25 11:44:56;;;;;;;5.13;3.73;;;16.20;99.90;;;;;;5055350;28;20433;-60
2022/09/25 11:47:29;;;;;;;5.30;3.83;;;16.30;99.90;;;;;;5055108;28;20466;-60
2022/09/25 11:49:57;;;;;;;6.00;4.03;;;16.30;99.90;;;;;;5065832;28;20927;-60
2022/09/25 11:52:39;;;;;;;5.80;3.80;;;16.30;99.90;;;;;;5077805;28;20746;-60
2022/09/25 11:55:45;;;;;;;3.57;3.27;;;16.30;99.50;;;;;;5075025;28;20450;-60
2022/09/25 11:58:39;;;;;;;3.90;3.60;;;16.40;99.30;;;;;;5075192;28;20431;-60
2022/09/25 12:01:21;;;;;;;4.87;3.50;;;16.40;99.00;;;;;;5074190;28;20510;-59
2022/09/25 12:04:14;;;;;;;5.47;3.03;;;16.60;98.50;;;;;;5075186;28;20467;-59
2022/09/25 12:07:05;;;;;;;4.80;3.73;;;16.70;97.60;;;;;;5075074;28;20518;-61
2022/09/25 12:09:50;;;;;;;2.53;2.17;;;16.60;96.50;;;;;;5059821;28;20456;-61
2022/09/25 12:12:25;;;;;;;5.10;2.70;;;16.60;96.00;;;;;;5053604;28;20484;-61
2022/09/25 12:15:00;;;;;;;4.07;2.50;;;16.70;95.00;;;;;;5065761;28;20460;-61
2022/09/25 12:17:35;;;;;;;3.30;2.53;;;16.70;94.40;;;;;;5074310;28;20438;-59
2022/09/25 12:20:13;;;;;;;2.40;2.20;;;16.70;93.20;;;;;;5074136;28;20843;-60
2022/09/25 12:22:51;;;;;;;3.00;2.27;;;16.60;92.20;;;;;;5072300;28;20459;-60
2022/09/25 12:25:32;;;;;;;4.43;2.33;;;16.70;92.10;;;;;;5066882;28;20463;-60
2022/09/25 12:28:05;;;;;;;2.63;2.43;;;16.70;91.80;;;;;;5083636;28;20439;-61
2022/09/25 12:30:38;;;;;;;2.67;2.47;;;16.60;91.50;;;;;;5074678;28;20535;-60
2022/09/25 12:33:33;;;;;;;4.57;2.10;;;16.50;91.40;;;;;;5059576;28;20464;-60
2022/09/25 12:36:09;;;;;;;4.80;2.73;;;16.50;91.50;;;;;;5056780;28;20529;-60
2022/09/25 12:38:43;;;;;;;3.03;2.40;;;16.50;91.40;;;;;;5059080;28;20946;-60
2022/09/25 12:41:16;;;;;;;2.90;2.60;;;16.70;91.30;;;;;;5061300;28;20896;-60
2022/09/25 12:43:48;;;;;;;2.87;2.63;;;16.80;90.90;;;;;;5057974;28;20547;-60
2022/09/25 12:46:22;;;;;;;4.60;2.70;;;16.90;90.30;;;;;;5058835;28;20499;-61
2022/09/25 12:48:52;;;;;;;2.80;2.37;;;17.10;89.80;;;;;;5057907;28;20431;-60
2022/09/25 12:51:28;;;;;;;4.30;2.40;;;17.20;88.60;;;;;;5059609;28;20468;-60
2022/09/25 12:53:59;;;;;;;4.40;2.23;;;17.10;87.30;;;;;;5065900;28;20883;-61
2022/09/25 12:56:30;;;;;;;2.40;1.70;;;17.00;87.30;;;;;;5058190;28;20444;-60
2022/09/25 12:59:04;;;;;;;6.00;1.63;;;16.90;87.50;;;;;;5064316;28;20475;-60
2022/09/25 13:01:40;;;;;;;2.20;1.40;;;16.90;86.50;;;;;;5064381;28;20436;-61
2022/09/25 13:04:22;;;;;;;2.00;1.37;;;16.90;85.10;;;;;;5068861;28;20488;-61
2022/09/25 13:06:59;;;;;;;3.07;1.87;;;17.00;83.50;;;;;;5066976;28;20432;-60
2022/09/25 13:09:34;;;;;;;3.00;1.33;;;17.00;82.40;;;;;;5061373;28;20466;-59
2022/09/25 13:12:07;;;;;;;3.27;1.50;;;17.00;82.00;;;;;;5068607;28;20574;-58
2022/09/25 13:14:38;;;;;;;3.03;1.50;;;17.00;81.70;;;;;;5070483;28;20535;-59
2022/09/25 13:17:06;;;;;;;5.20;2.00;;;16.90;81.50;;;;;;5058339;28;20466;-59